Terminal Aerodrome Forecast
Issued by NWS

Home | Current Version | Previous Version | Text Only | Print | Product List | Glossary On
Versions: 1 2 3 4 5 6 7 8 9 10 11 12 13 14 15 16 17 18 19 20
000
FTAK31 PAJN 232324
TAFAPG
TAF
PAPG 232324Z 2400/2424 27007KT P6SM VCSH SCT025 OVC040
      TEMPO 2400/2402 -SHRA BKN025
     FM240300 23006KT P6SM BKN035 WS020/31020KT
     FM241200 23005KT P6SM BKN025
     FM242000 06005KT P6SM BKN035
      AMD LTD TO CLD VIS AND WIND 2406/2415=

USA.gov is the U.S. government's official web portal to all federal, state and local government web resources and services.